Time;durP1;ratioP1;P1;durP2;ratioP2;P2;SDS_P1;SDS_P2;PMS_P1;PMS_P2;Temp;Humidity;BMP_temperature;BMP_pressure;BME280_temperature;BME280_humidity;BME280_pressure;Samples;Min_cycle;Max_cycle;Signal;HPM_P1;HPM_P2
2021/03/06 00:01:59;;;;;;;15.17;5.10;;;-0.40;74.50;;;;;;5038140;28;20464;-64
2021/03/06 00:04:25;;;;;;;14.27;4.97;;;-0.40;74.60;;;;;;5072426;28;20048;-64
2021/03/06 00:06:50;;;;;;;15.17;5.30;;;-0.40;74.80;;;;;;5072852;28;20488;-61
2021/03/06 00:09:16;;;;;;;13.73;6.03;;;-0.40;75.00;;;;;;5054844;28;20119;-61
2021/03/06 00:11:42;;;;;;;13.00;4.97;;;-0.40;75.00;;;;;;5071939;28;20408;-62
2021/03/06 00:14:07;;;;;;;18.50;5.50;;;-0.50;75.00;;;;;;5054889;28;20036;-61
2021/03/06 00:16:33;;;;;;;13.03;5.30;;;-0.50;75.20;;;;;;5054681;28;20044;-62
2021/03/06 00:18:58;;;;;;;12.87;5.00;;;-0.50;75.50;;;;;;5072215;28;20029;-62
2021/03/06 00:21:24;;;;;;;17.37;5.27;;;-0.50;75.50;;;;;;5037574;28;20499;-64
2021/03/06 00:23:50;;;;;;;14.77;5.43;;;-0.50;75.70;;;;;;5054243;28;20036;-64
2021/03/06 00:26:15;;;;;;;14.90;4.83;;;-0.50;75.80;;;;;;5072398;28;20040;-64
2021/03/06 00:28:41;;;;;;;13.40;5.80;;;-0.50;75.70;;;;;;5054347;28;20040;-64
2021/03/06 00:31:07;;;;;;;13.97;5.40;;;-0.50;75.90;;;;;;5063380;28;20044;-64
2021/03/06 00:33:32;;;;;;;17.77;5.87;;;-0.50;75.90;;;;;;5072497;28;20056;-64
2021/03/06 00:35:58;;;;;;;13.83;5.20;;;-0.60;75.90;;;;;;5071946;28;20037;-64
2021/03/06 00:38:23;;;;;;;12.40;5.23;;;-0.60;76.00;;;;;;5072090;28;20054;-64
2021/03/06 00:40:49;;;;;;;11.53;4.93;;;-0.60;76.20;;;;;;5071806;28;20029;-64
2021/03/06 00:43:15;;;;;;;12.03;5.20;;;-0.60;76.30;;;;;;5071595;28;20355;-64
2021/03/06 00:45:41;;;;;;;18.13;5.97;;;-0.60;76.30;;;;;;5072028;28;20125;-64
2021/03/06 00:48:07;;;;;;;16.20;6.27;;;-0.60;76.40;;;;;;5072138;28;20040;-64
2021/03/06 00:50:35;;;;;;;14.00;6.00;;;-0.60;76.60;;;;;;5071284;28;20110;-64
2021/03/06 00:53:05;;;;;;;13.70;4.97;;;-0.70;76.40;;;;;;5053949;28;20050;-64
2021/03/06 00:55:32;;;;;;;12.97;4.97;;;-0.70;77.10;;;;;;5071291;28;20032;-64
2021/03/06 00:57:58;;;;;;;15.83;5.73;;;-0.70;77.20;;;;;;5037385;28;20024;-64
2021/03/06 01:00:25;;;;;;;12.27;5.10;;;-0.70;76.80;;;;;;5071575;28;20052;-64
2021/03/06 01:02:54;;;;;;;12.43;5.00;;;-0.70;77.00;;;;;;5053148;28;20028;-64
2021/03/06 01:05:20;;;;;;;17.50;5.37;;;-0.80;77.00;;;;;;5053804;28;20110;-64
2021/03/06 01:07:45;;;;;;;14.77;4.70;;;-0.80;77.10;;;;;;5053326;28;20060;-64
2021/03/06 01:10:32;;;;;;;14.10;4.80;;;-0.80;77.40;;;;;;5071443;28;20063;-64
2021/03/06 01:12:58;;;;;;;16.27;5.17;;;-0.80;77.50;;;;;;5070991;28;20052;-64
2021/03/06 01:15:23;;;;;;;18.60;5.37;;;-0.80;77.50;;;;;;5053722;28;20048;-64
2021/03/06 01:17:49;;;;;;;14.53;4.97;;;-0.80;77.40;;;;;;5071008;28;20455;-64
2021/03/06 01:20:15;;;;;;;15.80;5.23;;;-0.80;77.60;;;;;;5053457;28;20036;-64
2021/03/06 01:22:41;;;;;;;16.93;5.17;;;-0.80;77.60;;;;;;5053334;28;20032;-64
2021/03/06 01:25:08;;;;;;;15.97;5.50;;;-0.90;77.60;;;;;;5052900;28;20130;-64
2021/03/06 01:27:33;;;;;;;12.03;4.90;;;-0.90;77.60;;;;;;5053494;28;20032;-64
2021/03/06 01:29:59;;;;;;;14.13;5.30;;;-0.90;77.70;;;;;;5070663;28;20427;-64
2021/03/06 01:32:25;;;;;;;13.73;4.67;;;-1.00;77.80;;;;;;5053303;28;20078;-64
2021/03/06 01:34:50;;;;;;;13.07;4.83;;;-1.00;78.00;;;;;;5071213;28;20020;-64
2021/03/06 01:37:16;;;;;;;10.83;5.40;;;-1.00;78.10;;;;;;5052831;28;20560;-64
2021/03/06 01:39:42;;;;;;;14.60;5.30;;;-1.00;78.20;;;;;;5052464;28;20033;-64
2021/03/06 01:42:08;;;;;;;12.30;4.57;;;-1.00;78.30;;;;;;5070915;28;20510;-64
2021/03/06 01:44:34;;;;;;;15.63;4.97;;;-1.00;78.50;;;;;;5070769;28;20040;-64
2021/03/06 01:47:00;;;;;;;11.60;4.90;;;-1.00;78.60;;;;;;5071311;28;20511;-64
2021/03/06 01:49:27;;;;;;;12.97;4.80;;;-1.00;79.20;;;;;;5070575;28;20142;-64
2021/03/06 01:51:57;;;;;;;13.57;4.73;;;-1.00;78.80;;;;;;5070717;28;20048;-64
2021/03/06 01:54:25;;;;;;;21.73;5.90;;;-1.10;78.90;;;;;;5071132;28;20040;-64
2021/03/06 01:56:52;;;;;;;14.30;4.47;;;-1.00;79.00;;;;;;5070598;28;20259;-64
2021/03/06 01:59:18;;;;;;;15.03;4.63;;;-1.10;79.10;;;;;;5071075;28;20040;-64
2021/03/06 02:01:44;;;;;;;15.63;4.30;;;-1.00;79.30;;;;;;5070248;28;20064;-64
2021/03/06 02:04:10;;;;;;;15.63;4.63;;;-1.00;79.20;;;;;;5070929;28;20056;-64
2021/03/06 02:06:36;;;;;;;14.33;4.70;;;-1.00;79.20;;;;;;5070883;28;20510;-64
2021/03/06 02:09:02;;;;;;;13.40;4.13;;;-1.00;79.20;;;;;;5070390;28;20124;-64
2021/03/06 02:12:03;;;;;;;11.90;4.60;;;-1.10;79.30;;;;;;5070473;28;20040;-64
2021/03/06 02:14:54;;;;;;;17.67;4.82;;;-1.00;79.50;;;;;;5023588;28;20065;-64
2021/03/06 02:17:41;;;;;;;10.52;4.28;;;-1.10;79.40;;;;;;5070290;28;20484;-64
2021/03/06 02:20:25;;;;;;;12.87;4.53;;;-1.10;79.60;;;;;;5070247;28;20506;-64
2021/03/06 02:23:28;;;;;;;14.27;4.13;;;-1.10;79.60;;;;;;5052743;28;20080;-64
2021/03/06 02:26:16;;;;;;;12.10;3.63;;;-1.10;79.90;;;;;;5036098;28;20044;-64
2021/03/06 02:29:02;;;;;;;9.93;3.50;;;-1.10;80.00;;;;;;5070249;28;20098;-64
2021/03/06 02:31:31;;;;;;;13.87;3.50;;;-1.10;80.00;;;;;;5070288;28;20044;-64
2021/03/06 02:34:03;;;;;;;12.20;3.67;;;-1.10;80.30;;;;;;5070270;28;20075;-64
2021/03/06 02:36:33;;;;;;;13.33;4.43;;;-1.00;80.50;;;;;;5052611;28;20191;-64
2021/03/06 02:39:02;;;;;;;13.75;4.07;;;-1.00;80.60;;;;;;5070341;28;20045;-64
2021/03/06 02:41:31;;;;;;;14.83;3.97;;;-1.00;80.50;;;;;;5052841;28;20041;-61
2021/03/06 02:43:58;;;;;;;16.50;4.30;;;-1.00;80.90;;;;;;5070222;28;20037;-62
2021/03/06 02:46:25;;;;;;;9.50;3.70;;;-1.00;81.30;;;;;;5070767;28;20032;-62
2021/03/06 02:48:53;;;;;;;11.43;3.90;;;-0.90;82.00;;;;;;5070637;28;20036;-62
2021/03/06 02:51:19;;;;;;;12.90;3.40;;;-0.60;82.60;;;;;;5054243;28;20047;-62
2021/03/06 02:53:45;;;;;;;10.33;3.20;;;-0.60;83.00;;;;;;5074259;28;20040;-61
2021/03/06 02:56:11;;;;;;;14.80;2.83;;;-0.40;83.20;;;;;;5073829;28;20063;-62
2021/03/06 02:58:55;;;;;;;9.97;2.97;;;-0.30;83.00;;;;;;5074205;28;20037;-62
2021/03/06 03:01:41;;;;;;;12.03;3.40;;;-0.10;83.00;;;;;;5073344;28;20040;-62
2021/03/06 03:04:32;;;;;;;11.70;3.00;;;0.00;83.00;;;;;;5074006;28;20052;-62
2021/03/06 03:07:07;;;;;;;9.57;2.80;;;0.10;82.90;;;;;;5055981;28;20040;-62
2021/03/06 03:09:34;;;;;;;10.17;2.70;;;0.20;82.80;;;;;;5056164;28;20052;-62
2021/03/06 03:12:10;;;;;;;9.10;2.50;;;0.30;82.80;;;;;;5073176;28;20120;-62
2021/03/06 03:14:39;;;;;;;8.77;2.47;;;0.30;82.90;;;;;;5073891;28;20040;-62
2021/03/06 03:17:16;;;;;;;11.63;2.47;;;0.40;83.00;;;;;;5073369;28;20082;-62
2021/03/06 03:19:47;;;;;;;15.07;2.90;;;0.50;83.10;;;;;;5073678;28;20040;-62
2021/03/06 03:22:17;;;;;;;10.33;2.30;;;0.60;83.10;;;;;;5055986;28;20090;-62
2021/03/06 03:24:45;;;;;;;11.40;2.83;;;0.60;83.10;;;;;;5073747;28;20040;-62
2021/03/06 03:27:11;;;;;;;10.10;2.37;;;0.70;82.90;;;;;;5073179;28;20041;-62
2021/03/06 03:29:41;;;;;;;10.57;2.13;;;0.70;82.70;;;;;;5038782;28;20041;-63
2021/03/06 03:32:10;;;;;;;9.40;2.73;;;0.80;82.60;;;;;;5054752;28;20119;-62
2021/03/06 03:34:37;;;;;;;9.37;2.50;;;0.80;82.80;;;;;;5055634;28;20113;-62
2021/03/06 03:37:04;;;;;;;11.07;2.90;;;0.80;82.70;;;;;;5073184;28;20082;-62
2021/03/06 03:39:30;;;;;;;8.97;2.90;;;0.80;82.80;;;;;;5073090;28;21062;-62
2021/03/06 03:41:58;;;;;;;10.60;2.60;;;0.90;82.90;;;;;;5072987;28;20040;-63
2021/03/06 03:44:24;;;;;;;9.23;2.23;;;0.90;82.80;;;;;;5073016;28;20052;-62
2021/03/06 03:46:51;;;;;;;9.47;2.80;;;0.90;82.70;;;;;;5074923;28;20036;-62
2021/03/06 03:49:20;;;;;;;12.03;2.67;;;1.00;82.80;;;;;;5059293;28;20043;-61
2021/03/06 03:51:46;;;;;;;9.67;2.10;;;1.00;83.00;;;;;;5058348;28;20037;-62
2021/03/06 03:54:14;;;;;;;9.30;2.30;;;1.00;83.10;;;;;;5076704;28;20045;-62
2021/03/06 03:56:40;;;;;;;10.20;2.23;;;1.10;83.30;;;;;;5058736;28;20036;-61
2021/03/06 03:59:06;;;;;;;6.90;1.87;;;1.20;83.30;;;;;;5076264;28;20285;-62
2021/03/06 04:01:39;;;;;;;8.17;1.77;;;1.20;83.20;;;;;;5056866;28;20105;-62
2021/03/06 04:04:06;;;;;;;9.07;2.00;;;1.20;83.20;;;;;;5054700;28;20036;-63
2021/03/06 04:06:32;;;;;;;11.83;2.20;;;1.30;83.30;;;;;;5055156;28;20039;-62
2021/03/06 04:08:57;;;;;;;15.47;2.37;;;1.30;83.40;;;;;;5072586;28;20056;-62
2021/03/06 04:11:23;;;;;;;10.47;2.00;;;1.40;84.10;;;;;;5071726;28;20460;-62
2021/03/06 04:13:49;;;;;;;8.60;2.03;;;1.50;83.70;;;;;;5072763;28;20058;-63
2021/03/06 04:16:15;;;;;;;7.43;2.00;;;1.50;83.70;;;;;;5072196;28;20056;-62
2021/03/06 04:18:40;;;;;;;9.50;2.10;;;1.60;83.70;;;;;;5072691;28;20119;-62
2021/03/06 04:21:06;;;;;;;12.43;2.03;;;1.70;83.80;;;;;;5063588;28;20037;-62
2021/03/06 04:23:32;;;;;;;10.40;1.87;;;1.70;83.60;;;;;;5072592;28;20553;-62
2021/03/06 04:25:57;;;;;;;8.53;1.73;;;1.80;83.70;;;;;;5072636;28;20021;-62
2021/03/06 04:28:23;;;;;;;9.20;1.70;;;1.80;83.70;;;;;;5054175;28;20042;-62
2021/03/06 04:30:49;;;;;;;12.23;2.23;;;1.90;84.00;;;;;;5072084;28;20068;-62
2021/03/06 04:33:14;;;;;;;14.43;2.13;;;1.90;84.00;;;;;;5072774;28;20526;-62
2021/03/06 04:35:40;;;;;;;11.37;2.10;;;2.00;84.00;;;;;;5073619;28;20412;-62
2021/03/06 04:38:05;;;;;;;12.30;2.60;;;2.00;84.00;;;;;;5074514;28;20127;-61
2021/03/06 04:40:31;;;;;;;11.77;2.23;;;2.00;84.00;;;;;;5055320;28;20033;-63
2021/03/06 04:42:57;;;;;;;10.90;2.40;;;2.10;84.10;;;;;;5054683;28;20037;-62
2021/03/06 04:45:22;;;;;;;14.30;2.40;;;2.10;84.10;;;;;;5072941;28;20090;-61
2021/03/06 04:47:48;;;;;;;10.97;2.80;;;2.10;84.10;;;;;;5072185;28;20036;-62
2021/03/06 04:50:15;;;;;;;13.20;2.80;;;2.10;84.00;;;;;;5072399;28;20044;-62
2021/03/06 04:52:40;;;;;;;13.20;2.87;;;2.10;84.30;;;;;;5053909;28;20062;-62
2021/03/06 04:55:07;;;;;;;14.10;3.30;;;2.10;84.40;;;;;;5072425;28;20037;-61
2021/03/06 04:57:34;;;;;;;12.83;3.20;;;2.10;84.70;;;;;;5054365;28;20055;-61
2021/03/06 05:00:00;;;;;;;10.77;2.73;;;2.10;84.60;;;;;;5071574;28;20172;-62
2021/03/06 05:02:27;;;;;;;11.97;3.07;;;2.10;84.60;;;;;;5053832;28;20115;-61
2021/03/06 05:04:53;;;;;;;11.27;3.10;;;2.20;84.80;;;;;;5071322;28;20044;-62
2021/03/06 05:07:18;;;;;;;10.90;3.43;;;2.10;84.50;;;;;;5071770;28;20032;-62
2021/03/06 05:09:44;;;;;;;12.10;3.20;;;2.10;84.80;;;;;;5071713;28;20431;-62
2021/03/06 05:12:10;;;;;;;11.43;3.67;;;2.10;84.90;;;;;;5052937;28;20488;-62
2021/03/06 05:14:35;;;;;;;14.57;4.00;;;2.10;85.00;;;;;;5070740;28;20032;-62
2021/03/06 05:17:02;;;;;;;12.83;4.03;;;2.10;85.40;;;;;;5071630;28;20036;-61
2021/03/06 05:19:28;;;;;;;10.60;3.70;;;2.20;85.50;;;;;;5071109;28;20044;-63
2021/03/06 05:21:54;;;;;;;15.80;4.50;;;2.20;85.50;;;;;;5053383;28;20042;-62
2021/03/06 05:24:19;;;;;;;14.93;4.27;;;2.20;85.50;;;;;;5071012;28;20056;-62
2021/03/06 05:26:45;;;;;;;10.50;4.43;;;2.20;85.60;;;;;;5071488;28;20058;-62
2021/03/06 05:29:11;;;;;;;13.70;4.63;;;2.20;85.60;;;;;;5071398;28;20063;-62
2021/03/06 05:31:36;;;;;;;14.77;4.73;;;2.20;85.60;;;;;;5052610;28;20136;-62
2021/03/06 05:34:02;;;;;;;13.33;5.23;;;2.20;85.60;;;;;;5036769;28;20039;-62
2021/03/06 05:36:28;;;;;;;12.13;4.93;;;2.20;85.40;;;;;;5053443;28;20546;-62
2021/03/06 05:38:54;;;;;;;13.17;5.63;;;2.10;85.80;;;;;;5070849;28;20036;-61
2021/03/06 05:41:20;;;;;;;17.33;6.20;;;2.10;86.30;;;;;;5070794;28;20419;-62
2021/03/06 05:43:46;;;;;;;17.83;5.87;;;2.20;86.60;;;;;;5052756;28;20045;-62
2021/03/06 05:46:18;;;;;;;11.30;4.80;;;2.20;86.80;;;;;;5053235;28;20500;-62
2021/03/06 05:48:43;;;;;;;11.17;4.87;;;2.30;86.80;;;;;;5036060;28;20040;-62
2021/03/06 05:51:10;;;;;;;12.20;5.30;;;2.30;86.70;;;;;;5052732;28;20037;-62
2021/03/06 05:53:39;;;;;;;15.30;5.27;;;2.30;86.10;;;;;;5071006;28;20037;-62
2021/03/06 05:56:08;;;;;;;13.43;5.37;;;2.30;86.50;;;;;;5052538;28;20036;-62
2021/03/06 05:58:34;;;;;;;12.23;5.33;;;2.30;86.60;;;;;;5070924;28;20540;-62
2021/03/06 06:01:01;;;;;;;14.90;5.93;;;2.30;86.50;;;;;;5070151;28;20029;-62
2021/03/06 06:03:29;;;;;;;17.63;6.03;;;2.30;86.60;;;;;;5070954;28;20032;-62
2021/03/06 06:05:55;;;;;;;15.13;5.67;;;2.30;87.00;;;;;;5070900;28;20040;-62
2021/03/06 06:08:23;;;;;;;15.73;5.87;;;2.40;87.30;;;;;;5070474;28;20036;-61
2021/03/06 06:10:49;;;;;;;12.83;5.43;;;2.40;87.20;;;;;;5070636;28;20036;-62
2021/03/06 06:13:14;;;;;;;14.73;5.10;;;2.50;87.40;;;;;;5070634;28;20492;-61
2021/03/06 06:15:40;;;;;;;11.73;5.03;;;2.50;87.30;;;;;;5071240;28;20029;-61
2021/03/06 06:18:06;;;;;;;12.80;5.23;;;2.60;87.20;;;;;;5071029;28;20037;-60
2021/03/06 06:20:36;;;;;;;15.83;5.20;;;2.60;86.90;;;;;;5052490;28;20488;-60
2021/03/06 06:23:12;;;;;;;19.83;6.10;;;2.60;86.90;;;;;;5070963;28;20565;-64
2021/03/06 06:25:38;;;;;;;15.83;5.27;;;2.60;86.80;;;;;;5037172;28;20642;-65
2021/03/06 06:28:05;;;;;;;13.60;5.20;;;2.60;86.30;;;;;;5074878;28;20121;-63
2021/03/06 06:30:31;;;;;;;14.23;5.40;;;2.50;86.10;;;;;;5074207;28;20037;-63
2021/03/06 06:32:57;;;;;;;16.30;5.50;;;2.40;86.20;;;;;;5074658;28;20032;-63
2021/03/06 06:35:23;;;;;;;14.63;5.03;;;2.40;86.40;;;;;;5074850;28;20039;-63
2021/03/06 06:37:59;;;;;;;15.63;5.47;;;2.40;86.60;;;;;;5074132;28;20033;-63
2021/03/06 06:40:28;;;;;;;11.37;4.93;;;2.40;87.00;;;;;;5057266;28;20381;-63
2021/03/06 06:42:54;;;;;;;11.03;4.97;;;2.50;87.70;;;;;;5073846;28;20114;-63
2021/03/06 06:45:20;;;;;;;18.17;5.50;;;2.50;87.20;;;;;;5074876;28;20028;-63
2021/03/06 06:47:48;;;;;;;14.77;4.50;;;2.50;86.80;;;;;;5075154;28;20483;-63
2021/03/06 06:50:27;;;;;;;11.90;5.07;;;2.50;86.80;;;;;;5074221;28;20035;-63
2021/03/06 06:52:52;;;;;;;12.90;5.53;;;2.50;86.80;;;;;;5074619;28;20036;-63
2021/03/06 06:55:18;;;;;;;17.80;5.40;;;2.50;87.30;;;;;;5056561;28;20024;-63
2021/03/06 06:57:52;;;;;;;17.73;5.37;;;2.60;88.10;;;;;;5074531;28;20495;-63
2021/03/06 07:00:19;;;;;;;13.30;4.73;;;2.80;88.90;;;;;;5073924;28;20127;-63
2021/03/06 07:02:59;;;;;;;11.93;4.47;;;3.20;89.60;;;;;;5039569;28;20115;-63
2021/03/06 07:05:27;;;;;;;14.05;3.92;;;3.70;90.40;;;;;;5056326;28;20037;-63
2021/03/06 07:07:53;;;;;;;10.47;2.97;;;4.50;90.70;;;;;;5068653;28;20437;-63
2021/03/06 07:10:21;;;;;;;11.77;3.67;;;4.90;89.70;;;;;;5062007;28;20490;-63
2021/03/06 07:12:56;;;;;;;13.20;3.70;;;4.90;87.20;;;;;;5045827;28;20438;-63
2021/03/06 07:15:24;;;;;;;11.70;3.60;;;4.80;86.60;;;;;;5053613;28;20132;-62
2021/03/06 07:17:56;;;;;;;11.37;3.73;;;4.70;86.30;;;;;;5036418;28;20485;-63
2021/03/06 07:20:21;;;;;;;11.97;3.57;;;4.60;86.40;;;;;;5019500;28;20128;-63
2021/03/06 07:22:48;;;;;;;12.40;4.10;;;4.60;86.90;;;;;;5053445;28;20480;-63
2021/03/06 07:25:14;;;;;;;11.47;3.60;;;4.60;86.60;;;;;;5019412;28;20044;-63
2021/03/06 07:27:41;;;;;;;12.17;3.57;;;4.50;86.00;;;;;;5035421;28;20417;-63
2021/03/06 07:30:09;;;;;;;12.73;3.67;;;4.40;85.90;;;;;;5035597;28;20473;-63
2021/03/06 07:32:38;;;;;;;14.77;3.60;;;4.40;86.80;;;;;;5035639;28;20045;-64
2021/03/06 07:35:10;;;;;;;11.87;3.20;;;4.50;87.40;;;;;;5035684;28;20095;-63
2021/03/06 07:37:37;;;;;;;10.20;2.90;;;4.60;87.20;;;;;;5052948;28;20071;-66
2021/03/06 07:40:10;;;;;;;11.23;3.20;;;4.70;88.30;;;;;;5035299;28;20394;-63
2021/03/06 07:42:52;;;;;;;15.53;3.47;;;4.90;88.00;;;;;;5053365;28;20064;-63
2021/03/06 07:45:28;;;;;;;12.17;3.57;;;5.10;87.40;;;;;;5035345;28;20366;-64
2021/03/06 07:48:09;;;;;;;15.43;4.03;;;5.30;87.10;;;;;;5052797;28;20566;-65
2021/03/06 07:50:37;;;;;;;14.05;3.58;;;5.30;86.50;;;;;;5053078;28;20107;-65
2021/03/06 07:53:03;;;;;;;12.27;3.40;;;5.40;86.70;;;;;;5052756;28;20129;-64
2021/03/06 07:55:32;;;;;;;12.30;3.27;;;5.60;86.50;;;;;;5035535;28;20067;-66
2021/03/06 07:58:09;;;;;;;13.50;2.80;;;5.60;86.30;;;;;;5035310;28;20029;-64
2021/03/06 08:00:42;;;;;;;17.30;3.53;;;5.70;85.70;;;;;;5060827;28;20115;-62
2021/03/06 08:03:23;;;;;;;16.10;3.83;;;5.70;85.70;;;;;;5063708;28;20128;-64
2021/03/06 08:05:50;;;;;;;14.43;3.33;;;5.70;85.20;;;;;;5061982;28;20048;-63
2021/03/06 08:08:34;;;;;;;16.73;3.10;;;5.70;85.00;;;;;;5061665;28;20028;-65
2021/03/06 08:11:03;;;;;;;13.43;3.17;;;5.60;84.80;;;;;;5043696;28;20041;-64
2021/03/06 08:13:51;;;;;;;16.93;3.50;;;5.70;85.10;;;;;;5061055;28;20403;-65
2021/03/06 08:16:25;;;;;;;14.23;3.10;;;5.70;85.20;;;;;;5061336;28;20033;-64
2021/03/06 08:19:13;;;;;;;16.90;3.20;;;5.80;85.50;;;;;;5063947;28;20028;-65
2021/03/06 08:21:44;;;;;;;17.43;3.20;;;5.90;85.40;;;;;;5063042;28;20035;-63
2021/03/06 08:24:13;;;;;;;;;;;5.90;84.60;;;;;;5047525;28;20052;-65
2021/03/06 08:27:07;;;;;;;14.50;4.17;;;5.90;84.40;;;;;;5060256;28;19920;-65
2021/03/06 08:29:37;;;;;;;16.63;4.30;;;5.90;84.20;;;;;;5061258;28;20059;-65
2021/03/06 08:32:04;;;;;;;;;;;5.90;84.40;;;;;;5042683;28;20053;-64
2021/03/06 08:34:47;;;;;;;12.47;3.60;;;5.80;84.10;;;;;;5042829;28;19912;-64
2021/03/06 08:37:16;;;;;;;17.83;4.10;;;5.80;84.00;;;;;;5044303;28;20039;-65
2021/03/06 08:39:53;;;;;;;11.23;4.37;;;5.80;85.00;;;;;;5044519;28;20041;-65
2021/03/06 08:42:26;;;;;;;14.13;4.13;;;6.00;86.00;;;;;;5061479;28;20029;-73
2021/03/06 08:44:53;;;;;;;16.57;3.60;;;6.50;87.30;;;;;;5057162;28;20043;-74
2021/03/06 08:47:37;;;;;;;13.27;3.53;;;7.20;87.30;;;;;;5055446;28;20896;-74
2021/03/06 08:50:10;;;;;;;9.33;3.00;;;7.90;85.50;;;;;;5044760;28;20044;-74
2021/03/06 08:52:35;;;;;;;13.33;3.80;;;8.10;83.00;;;;;;5062240;28;20047;-74
2021/03/06 08:55:04;;;;;;;16.50;4.53;;;7.90;82.00;;;;;;5061933;28;20056;-75
2021/03/06 08:57:32;;;;;;;11.97;3.60;;;7.90;83.70;;;;;;5058022;28;20044;-73
2021/03/06 09:00:00;;;;;;;11.30;3.00;;;8.10;83.90;;;;;;5051168;28;20120;-73
2021/03/06 09:02:31;;;;;;;14.93;3.27;;;8.20;83.10;;;;;;5051167;28;20055;-73
2021/03/06 09:05:06;;;;;;;12.13;2.90;;;8.30;82.80;;;;;;5051224;28;20044;-73
2021/03/06 09:07:33;;;;;;;11.60;3.10;;;8.30;81.60;;;;;;5051556;28;20097;-73
2021/03/06 09:10:12;;;;;;;10.10;2.93;;;8.10;80.20;;;;;;5051324;28;20123;-73
2021/03/06 09:12:45;;;;;;;9.23;2.60;;;7.80;79.80;;;;;;5034144;28;20507;-74
2021/03/06 09:15:12;;;;;;;13.33;3.40;;;7.60;80.20;;;;;;5050459;28;20036;-73
2021/03/06 09:17:38;;;;;;;9.80;2.73;;;7.40;80.50;;;;;;5050222;28;20033;-73
2021/03/06 09:20:06;;;;;;;11.00;2.80;;;7.40;81.20;;;;;;5049658;28;20404;-73
2021/03/06 09:22:46;;;;;;;9.03;2.97;;;7.40;82.10;;;;;;5033029;28;20041;-73
2021/03/06 09:25:13;;;;;;;8.15;3.15;;;7.50;81.00;;;;;;5050954;28;20077;-73
2021/03/06 09:27:47;;;;;;;10.43;2.97;;;7.50;81.80;;;;;;5053495;28;20438;-73
2021/03/06 09:30:24;;;;;;;10.87;2.70;;;7.60;82.10;;;;;;5070366;28;20040;-73
2021/03/06 09:32:50;;;;;;;10.60;2.87;;;7.70;82.10;;;;;;5069926;28;20451;-72
2021/03/06 09:35:18;;;;;;;11.03;3.30;;;7.80;82.00;;;;;;5036320;28;20028;-72
2021/03/06 09:37:44;;;;;;;11.13;2.90;;;7.80;81.30;;;;;;5070263;28;20060;-73
2021/03/06 09:40:21;;;;;;;9.47;2.63;;;7.80;81.50;;;;;;5067089;28;20039;-73
2021/03/06 09:42:51;;;;;;;9.57;2.30;;;7.80;80.80;;;;;;5050124;28;20529;-73
2021/03/06 09:45:17;;;;;;;10.27;2.67;;;7.70;80.60;;;;;;5050953;28;20057;-73
2021/03/06 09:47:43;;;;;;;8.33;2.53;;;7.60;80.40;;;;;;5033803;28;20375;-72
2021/03/06 09:50:11;;;;;;;7.43;2.50;;;7.50;80.40;;;;;;5051055;28;20505;-72
2021/03/06 09:52:36;;;;;;;7.30;2.10;;;7.40;80.80;;;;;;5051224;28;20056;-73
2021/03/06 09:55:02;;;;;;;7.30;2.13;;;7.40;81.30;;;;;;5017098;28;20126;-74
2021/03/06 09:57:28;;;;;;;8.67;2.53;;;7.50;82.00;;;;;;5051379;28;20032;-74
2021/03/06 09:59:54;;;;;;;6.77;2.40;;;7.60;81.70;;;;;;5050141;28;20037;-73
2021/03/06 10:02:23;;;;;;;5.90;2.30;;;7.60;80.90;;;;;;5051355;28;20111;-74
2021/03/06 10:04:50;;;;;;;8.03;2.60;;;7.50;80.40;;;;;;5051403;28;20445;-73
2021/03/06 10:07:20;;;;;;;9.23;2.63;;;7.50;80.80;;;;;;5016410;28;20025;-73
2021/03/06 10:09:46;;;;;;;7.53;2.70;;;7.50;81.30;;;;;;5017261;28;20037;-74
2021/03/06 10:12:15;;;;;;;9.33;2.50;;;7.70;82.50;;;;;;5050067;28;20052;-72
2021/03/06 10:14:41;;;;;;;9.47;2.70;;;8.00;82.60;;;;;;5051131;28;20037;-73
2021/03/06 10:17:09;;;;;;;10.67;3.70;;;8.20;81.30;;;;;;5015043;28;20120;-72
2021/03/06 10:19:47;;;;;;;9.20;3.73;;;8.20;81.00;;;;;;5050840;28;20067;-74
2021/03/06 10:22:13;;;;;;;8.40;3.13;;;8.30;81.20;;;;;;5050031;28;20056;-72
2021/03/06 10:24:51;;;;;;;10.23;3.60;;;8.40;80.80;;;;;;5031597;28;20484;-73
2021/03/06 10:27:17;;;;;;;11.77;3.50;;;8.40;80.30;;;;;;5050106;28;20379;-73
2021/03/06 10:29:43;;;;;;;9.10;3.40;;;8.40;80.10;;;;;;5031933;28;20048;-73
2021/03/06 10:32:09;;;;;;;8.03;3.33;;;8.50;80.30;;;;;;5049416;28;20041;-74
2021/03/06 10:34:36;;;;;;;9.63;3.40;;;8.60;80.50;;;;;;5049210;28;20045;-72
2021/03/06 10:37:13;;;;;;;10.10;3.50;;;8.70;79.80;;;;;;5049624;28;20120;-72
2021/03/06 10:39:59;;;;;;;9.70;2.63;;;8.80;79.60;;;;;;5049859;28;20490;-72
2021/03/06 10:42:46;;;;;;;10.63;3.00;;;8.90;79.00;;;;;;5050229;28;20064;-73
2021/03/06 10:45:27;;;;;;;7.87;2.73;;;8.80;78.20;;;;;;5024193;28;20068;-73
2021/03/06 10:47:55;;;;;;;7.63;2.90;;;8.70;77.10;;;;;;5033117;28;20117;-72
2021/03/06 10:50:27;;;;;;;7.10;2.77;;;8.50;76.90;;;;;;5032046;28;20512;-72
2021/03/06 10:53:09;;;;;;;8.77;2.80;;;8.20;76.00;;;;;;5050206;28;20069;-72
2021/03/06 10:55:36;;;;;;;9.03;2.57;;;8.00;76.20;;;;;;5034773;28;20037;-73
2021/03/06 10:58:02;;;;;;;9.17;2.90;;;7.70;76.70;;;;;;5050304;28;20127;-72
2021/03/06 11:00:28;;;;;;;8.03;2.63;;;7.60;77.00;;;;;;5031777;28;20033;-73
2021/03/06 11:02:58;;;;;;;9.27;2.40;;;7.60;77.60;;;;;;5050241;28;20099;-72
2021/03/06 11:05:25;;;;;;;7.50;2.50;;;7.50;77.30;;;;;;5016333;28;20080;-72
2021/03/06 11:07:52;;;;;;;6.40;2.33;;;7.50;77.20;;;;;;5049911;28;20045;-73
2021/03/06 11:10:20;;;;;;;8.40;2.40;;;7.40;76.70;;;;;;5032301;28;20037;-72
2021/03/06 11:12:57;;;;;;;8.67;2.70;;;7.40;77.30;;;;;;5034834;28;20049;-72
2021/03/06 11:15:25;;;;;;;7.27;2.17;;;7.40;77.70;;;;;;5053754;28;20119;-72
2021/03/06 11:17:54;;;;;;;6.83;2.30;;;7.40;77.30;;;;;;5035731;28;20040;-72
2021/03/06 11:20:23;;;;;;;7.17;2.00;;;7.40;76.90;;;;;;5035863;28;20053;-72
2021/03/06 11:22:49;;;;;;;7.07;2.03;;;7.40;76.70;;;;;;5035250;28;20048;-72
2021/03/06 11:25:16;;;;;;;7.57;1.87;;;7.40;77.40;;;;;;5054289;28;20124;-72
2021/03/06 11:27:42;;;;;;;6.57;1.63;;;7.40;77.20;;;;;;5053526;28;20547;-72
2021/03/06 11:30:09;;;;;;;5.40;1.40;;;7.50;77.00;;;;;;5035089;28;20127;-72
2021/03/06 11:32:34;;;;;;;7.07;1.60;;;7.60;76.70;;;;;;5053175;28;20054;-72
2021/03/06 11:35:00;;;;;;;6.83;1.93;;;7.60;76.30;;;;;;5019181;28;20037;-73
2021/03/06 11:37:26;;;;;;;7.67;1.80;;;7.60;76.50;;;;;;5052847;28;20071;-72
2021/03/06 11:39:51;;;;;;;5.20;1.50;;;7.60;76.40;;;;;;5035557;28;20047;-72
2021/03/06 11:42:17;;;;;;;7.77;1.70;;;7.60;76.30;;;;;;5052345;28;20045;-72
2021/03/06 11:44:43;;;;;;;6.30;1.73;;;7.70;76.30;;;;;;5053341;28;20501;-72
2021/03/06 11:47:08;;;;;;;7.30;1.70;;;7.70;75.90;;;;;;5035670;28;20041;-72
2021/03/06 11:49:34;;;;;;;8.17;2.00;;;7.70;75.40;;;;;;5034901;28;20037;-72
2021/03/06 11:51:59;;;;;;;8.87;2.30;;;7.60;74.80;;;;;;5018527;28;20192;-72
2021/03/06 11:54:25;;;;;;;9.50;2.33;;;7.50;74.80;;;;;;5034840;28;20051;-72
2021/03/06 11:56:51;;;;;;;13.93;2.70;;;7.50;75.20;;;;;;5035233;28;20060;-72
2021/03/06 11:59:16;;;;;;;7.43;2.60;;;7.50;75.10;;;;;;5035445;28;20032;-72
2021/03/06 12:01:42;;;;;;;9.77;3.30;;;7.60;75.50;;;;;;5051838;28;20045;-72
2021/03/06 12:04:08;;;;;;;12.30;3.17;;;7.60;75.80;;;;;;5053086;28;20041;-72
2021/03/06 12:06:33;;;;;;;8.87;3.60;;;7.70;75.50;;;;;;5035466;28;20519;-72
2021/03/06 12:08:59;;;;;;;10.97;4.73;;;7.80;74.90;;;;;;5052133;28;20393;-72
2021/03/06 12:11:24;;;;;;;11.80;4.50;;;7.80;75.50;;;;;;5034080;28;20053;-73
2021/03/06 12:13:50;;;;;;;13.57;4.20;;;8.00;75.50;;;;;;5052017;28;20075;-73
2021/03/06 12:16:16;;;;;;;10.20;4.37;;;7.90;74.20;;;;;;5035140;28;20541;-72
2021/03/06 12:18:41;;;;;;;11.60;4.40;;;8.00;74.80;;;;;;5052560;28;20061;-72
2021/03/06 12:21:07;;;;;;;7.27;3.60;;;8.00;74.80;;;;;;5033963;28;20040;-72
2021/03/06 12:23:33;;;;;;;10.27;3.60;;;8.00;74.20;;;;;;5051984;28;20112;-72
2021/03/06 12:25:58;;;;;;;11.83;4.43;;;8.10;74.30;;;;;;5034741;28;20064;-72
2021/03/06 12:28:24;;;;;;;9.87;3.53;;;8.10;74.70;;;;;;5017705;28;20048;-72
2021/03/06 12:30:49;;;;;;;11.57;3.57;;;8.20;74.80;;;;;;5034660;28;20128;-72
2021/03/06 12:33:15;;;;;;;8.87;2.70;;;8.40;75.00;;;;;;5051847;28;20068;-72
2021/03/06 12:35:41;;;;;;;9.23;2.70;;;8.50;73.90;;;;;;5034588;28;20036;-72
2021/03/06 12:38:06;;;;;;;8.70;1.73;;;8.50;73.50;;;;;;5052277;28;20036;-72
2021/03/06 12:40:32;;;;;;;8.63;1.90;;;8.40;73.40;;;;;;5051010;28;20037;-72
2021/03/06 12:42:58;;;;;;;7.10;1.80;;;8.40;72.90;;;;;;5051930;28;20033;-73
2021/03/06 12:45:24;;;;;;;8.37;1.63;;;8.30;73.10;;;;;;5051640;28;20440;-73
2021/03/06 12:47:49;;;;;;;8.00;1.57;;;8.30;73.40;;;;;;5052068;28;20112;-72
2021/03/06 12:50:15;;;;;;;10.73;1.87;;;8.40;73.90;;;;;;5033986;28;20036;-72
2021/03/06 12:52:41;;;;;;;9.43;2.03;;;8.50;73.80;;;;;;5033266;28;20114;-72
2021/03/06 12:55:07;;;;;;;7.53;1.50;;;8.70;74.20;;;;;;5034216;28;20086;-73
2021/03/06 12:57:33;;;;;;;6.30;1.30;;;9.00;74.30;;;;;;5051806;28;20045;-72